createdAt,value
2023-07-19T00:00:30.174Z,12.00
2023-07-19T00:03:18.105Z,12.00
2023-07-19T00:05:46.190Z,11.97
2023-07-19T00:08:15.661Z,11.96
2023-07-19T00:10:43.764Z,11.93
2023-07-19T00:13:11.804Z,11.90
2023-07-19T00:15:39.760Z,11.87
2023-07-19T00:18:07.819Z,11.86
2023-07-19T00:20:35.834Z,11.86
2023-07-19T00:23:03.952Z,11.88
2023-07-19T00:25:32.856Z,11.89
2023-07-19T00:28:00.796Z,11.89
2023-07-19T00:30:29.461Z,11.89
2023-07-19T00:32:57.761Z,11.88
2023-07-19T00:35:27.363Z,11.86
2023-07-19T00:37:55.546Z,11.83
2023-07-19T00:40:23.683Z,11.78
2023-07-19T00:42:58.680Z,11.75
2023-07-19T00:45:27.958Z,11.73
2023-07-19T00:47:57.985Z,11.68
2023-07-19T00:50:26.040Z,11.64
2023-07-19T00:52:54.171Z,11.62
2023-07-19T00:55:22.214Z,11.62
2023-07-19T00:57:50.313Z,11.60
2023-07-19T01:00:19.602Z,11.52
2023-07-19T01:02:47.818Z,11.48
2023-07-19T01:05:17.552Z,11.44
2023-07-19T01:07:45.876Z,11.40
2023-07-19T01:10:14.496Z,11.35
2023-07-19T01:12:42.531Z,11.32
2023-07-19T01:15:11.243Z,11.30
2023-07-19T01:17:39.392Z,11.29
2023-07-19T01:20:09.878Z,11.31
2023-07-19T01:22:38.005Z,11.34
2023-07-19T01:25:06.641Z,11.32
2023-07-19T01:27:34.558Z,11.29
2023-07-19T01:30:02.616Z,11.27
2023-07-19T01:32:30.697Z,11.24
2023-07-19T01:34:58.967Z,11.21
2023-07-19T01:37:29.398Z,11.19
2023-07-19T01:39:57.411Z,11.18
2023-07-19T01:42:25.458Z,11.18
2023-07-19T01:44:55.107Z,11.19
2023-07-19T01:47:23.291Z,11.20
2023-07-19T01:49:51.296Z,11.20
2023-07-19T01:52:20.024Z,11.20
2023-07-19T01:54:48.148Z,11.20
2023-07-19T01:57:16.398Z,11.17
2023-07-19T01:59:44.727Z,11.13
2023-07-19T02:02:12.990Z,11.12
2023-07-19T02:04:42.558Z,11.10
2023-07-19T02:07:10.720Z,11.10
2023-07-19T02:09:38.739Z,11.10
2023-07-19T02:12:07.367Z,11.06
2023-07-19T02:14:35.620Z,11.04
2023-07-19T02:17:04.575Z,11.03
2023-07-19T02:19:34.823Z,11.01
2023-07-19T02:22:02.894Z,10.96
2023-07-19T02:24:31.296Z,10.94
2023-07-19T02:26:59.903Z,10.92
2023-07-19T02:29:27.996Z,10.90
2023-07-19T02:31:56.514Z,10.90
2023-07-19T02:34:24.550Z,10.91
2023-07-19T02:36:52.748Z,10.94
2023-07-19T02:39:22.171Z,10.98
2023-07-19T02:41:50.199Z,11.01
2023-07-19T02:44:18.317Z,11.05
2023-07-19T02:46:46.688Z,11.08
2023-07-19T02:49:15.050Z,11.11
2023-07-19T02:51:43.114Z,11.16
2023-07-19T02:54:11.533Z,11.22
2023-07-19T02:56:39.689Z,11.27
2023-07-19T02:59:07.757Z,11.33
2023-07-19T03:01:37.628Z,11.38
2023-07-19T03:04:07.858Z,11.43
2023-07-19T03:06:36.213Z,11.47
2023-07-19T03:09:04.412Z,11.51
2023-07-19T03:11:32.415Z,11.56
2023-07-19T03:14:00.541Z,11.60
2023-07-19T03:16:28.677Z,11.68
2023-07-19T03:18:56.760Z,11.76
2023-07-19T03:21:24.910Z,11.81
2023-07-19T03:23:52.957Z,11.84
2023-07-19T03:26:20.963Z,11.89
2023-07-19T03:28:49.564Z,11.96
2023-07-19T03:31:18.100Z,12.05
2023-07-19T03:33:46.450Z,12.17
2023-07-19T03:36:14.461Z,12.28
2023-07-19T03:38:42.617Z,12.39
2023-07-19T03:41:11.578Z,12.50
2023-07-19T03:43:40.022Z,12.61
2023-07-19T03:46:09.282Z,12.74
2023-07-19T03:48:39.349Z,12.84
2023-07-19T03:51:07.913Z,12.95
2023-07-19T03:53:36.111Z,13.10
2023-07-19T03:56:04.593Z,13.23
2023-07-19T03:58:33.712Z,13.32
2023-07-19T04:01:04.324Z,13.42
2023-07-19T04:03:32.683Z,13.54
2023-07-19T04:06:00.971Z,13.67
2023-07-19T04:08:29.150Z,13.80
2023-07-19T04:10:57.207Z,13.93
2023-07-19T04:13:28.949Z,14.04
2023-07-19T04:15:57.370Z,14.10
2023-07-19T04:18:28.353Z,14.15
2023-07-19T04:20:58.696Z,14.21
2023-07-19T04:23:29.060Z,14.28
2023-07-19T04:25:57.234Z,14.37
2023-07-19T04:28:25.472Z,14.45
2023-07-19T04:30:53.597Z,14.55
2023-07-19T04:33:21.814Z,14.68
2023-07-19T04:35:52.150Z,14.84
2023-07-19T04:38:23.675Z,15.05
2023-07-19T04:40:51.761Z,15.29
2023-07-19T04:43:26.673Z,15.58
2023-07-19T04:45:56.781Z,15.91
2023-07-19T04:48:26.576Z,16.14
2023-07-19T04:50:57.845Z,16.29
2023-07-19T04:53:26.756Z,16.43
2023-07-19T04:55:57.453Z,16.54
2023-07-19T04:58:27.444Z,16.63
2023-07-19T05:00:55.664Z,16.71
2023-07-19T05:03:23.736Z,16.80
2023-07-19T05:05:51.712Z,16.92
2023-07-19T05:08:20.268Z,17.02
2023-07-19T05:10:48.268Z,17.13
2023-07-19T05:13:16.431Z,17.26
2023-07-19T05:15:44.546Z,17.35
2023-07-19T05:18:15.337Z,17.51
2023-07-19T05:20:43.545Z,17.61
2023-07-19T05:23:13.398Z,17.76
2023-07-19T05:25:41.613Z,17.91
2023-07-19T05:28:09.630Z,18.04
2023-07-19T05:30:37.660Z,18.27
2023-07-19T05:33:05.709Z,18.57
2023-07-19T05:35:35.058Z,18.86
2023-07-19T05:38:04.577Z,19.17
2023-07-19T05:40:32.770Z,19.49
2023-07-19T05:43:00.832Z,19.67
2023-07-19T05:45:28.944Z,19.80
2023-07-19T05:47:57.027Z,19.66
2023-07-19T05:50:25.091Z,19.63
2023-07-19T05:52:53.185Z,19.68
2023-07-19T05:55:21.201Z,20.00
2023-07-19T05:57:49.346Z,20.24
2023-07-19T06:00:25.987Z,20.46
2023-07-19T06:02:55.879Z,20.48
2023-07-19T06:05:26.134Z,20.49
2023-07-19T06:07:54.502Z,20.57
2023-07-19T06:10:22.714Z,20.68
2023-07-19T06:12:51.442Z,20.81
2023-07-19T06:15:19.544Z,20.94
2023-07-19T06:17:48.018Z,21.26
2023-07-19T06:20:16.078Z,21.64
2023-07-19T06:22:45.115Z,21.71
2023-07-19T06:25:13.407Z,21.56
2023-07-19T06:27:41.638Z,21.53
2023-07-19T06:30:11.356Z,21.67
2023-07-19T06:32:39.759Z,21.83
2023-07-19T06:35:10.505Z,22.20
2023-07-19T06:37:40.287Z,22.41
2023-07-19T06:40:09.340Z,22.38
2023-07-19T06:42:37.638Z,22.46
2023-07-19T06:45:06.431Z,22.42
2023-07-19T06:47:34.500Z,22.44
2023-07-19T06:50:03.022Z,22.44
2023-07-19T06:52:31.013Z,22.69
2023-07-19T06:54:58.967Z,23.25
2023-07-19T06:57:26.971Z,23.69
2023-07-19T06:59:55.017Z,23.87
2023-07-19T07:02:23.009Z,23.94
2023-07-19T07:04:51.687Z,24.18
2023-07-19T07:07:20.781Z,24.27
2023-07-19T07:09:48.951Z,24.26
2023-07-19T07:12:17.101Z,24.31
2023-07-19T07:14:45.179Z,24.28
2023-07-19T07:17:13.309Z,24.20
2023-07-19T07:19:41.415Z,24.23
2023-07-19T07:22:09.406Z,24.16
2023-07-19T07:24:37.390Z,24.30
2023-07-19T07:27:06.366Z,24.51
2023-07-19T07:29:34.331Z,24.61
2023-07-19T07:32:02.383Z,24.65
2023-07-19T07:34:30.489Z,24.77
2023-07-19T07:36:58.567Z,24.77
2023-07-19T07:39:26.587Z,24.71
2023-07-19T07:41:54.646Z,24.83
2023-07-19T07:44:22.776Z,24.99
2023-07-19T07:46:51.345Z,25.01
2023-07-19T07:49:19.390Z,25.15
2023-07-19T07:51:47.458Z,25.18
2023-07-19T07:54:15.581Z,25.19
2023-07-19T07:56:43.579Z,24.89
2023-07-19T07:59:11.627Z,24.87
2023-07-19T08:01:39.652Z,24.76
2023-07-19T08:04:10.338Z,24.84
2023-07-19T08:06:39.923Z,25.08
2023-07-19T08:09:07.940Z,25.53
2023-07-19T08:11:36.045Z,25.74
2023-07-19T08:14:04.095Z,25.91
2023-07-19T08:16:32.095Z,25.91
2023-07-19T08:19:00.196Z,25.54
2023-07-19T08:21:36.026Z,25.37
2023-07-19T08:24:05.604Z,25.33
2023-07-19T08:26:33.572Z,25.49
2023-07-19T08:29:01.583Z,25.69
2023-07-19T08:31:29.759Z,25.85
2023-07-19T08:33:57.999Z,25.86
2023-07-19T08:36:26.154Z,26.11
2023-07-19T08:38:54.351Z,26.35
2023-07-19T08:41:24.559Z,26.58
2023-07-19T08:43:56.823Z,26.80
2023-07-19T08:46:25.876Z,27.13
2023-07-19T08:48:54.068Z,27.40
2023-07-19T08:51:22.922Z,27.50
2023-07-19T08:53:51.129Z,27.96
2023-07-19T08:56:21.615Z,28.20
2023-07-19T08:58:49.678Z,28.64
2023-07-19T09:01:17.806Z,28.91
2023-07-19T09:03:46.125Z,29.17
2023-07-19T09:06:24.008Z,29.28
2023-07-19T09:08:53.319Z,29.27
2023-07-19T09:11:24.537Z,29.58
2023-07-19T09:13:57.621Z,29.28
2023-07-19T09:16:31.208Z,28.51
2023-07-19T09:19:00.904Z,28.39
2023-07-19T09:21:43.647Z,27.95
2023-07-19T09:24:13.204Z,28.17
2023-07-19T09:26:58.837Z,28.46
2023-07-19T09:29:32.154Z,28.36
2023-07-19T09:32:03.468Z,28.37
2023-07-19T09:34:39.444Z,28.65
2023-07-19T09:37:07.581Z,29.42
2023-07-19T09:39:36.436Z,29.05
2023-07-19T09:42:05.765Z,29.18
2023-07-19T09:44:35.064Z,28.56
2023-07-19T09:47:14.427Z,28.51
2023-07-19T09:49:47.047Z,28.68
2023-07-19T09:52:18.911Z,28.84
2023-07-19T09:54:47.140Z,28.70
2023-07-19T09:57:18.393Z,29.05
2023-07-19T09:59:51.217Z,28.72
2023-07-19T10:02:22.688Z,28.26
2023-07-19T10:04:52.456Z,28.96
2023-07-19T10:07:22.456Z,29.10
2023-07-19T10:09:53.679Z,29.23
2023-07-19T10:12:26.485Z,28.95
2023-07-19T10:15:01.457Z,28.87
2023-07-19T10:17:33.363Z,28.28
2023-07-19T10:20:14.263Z,27.52
2023-07-19T10:22:58.940Z,27.33
2023-07-19T10:25:29.201Z,27.29
2023-07-19T10:27:58.250Z,27.16
2023-07-19T10:30:45.586Z,26.55
2023-07-19T10:33:25.682Z,26.46
2023-07-19T10:35:56.818Z,26.62
2023-07-19T10:38:27.522Z,26.92
2023-07-19T10:41:04.273Z,27.12
2023-07-19T10:46:08.273Z,26.76
2023-07-19T10:48:41.578Z,26.44
2023-07-19T10:51:12.803Z,26.16
2023-07-19T10:53:41.844Z,25.89
2023-07-19T10:56:10.084Z,25.77
2023-07-19T10:58:38.527Z,25.45
2023-07-19T11:01:07.500Z,25.29
2023-07-19T11:03:35.819Z,25.10
2023-07-19T11:06:08.537Z,24.83
2023-07-19T11:08:36.673Z,24.63
2023-07-19T11:11:05.198Z,24.33
2023-07-19T11:13:33.911Z,23.97
2023-07-19T11:16:02.455Z,23.82
2023-07-19T11:18:36.416Z,23.80
2023-07-19T11:21:05.297Z,23.96
2023-07-19T11:23:39.617Z,24.18
2023-07-19T11:26:13.063Z,24.21
2023-07-19T11:28:54.030Z,24.14
2023-07-19T11:31:42.223Z,24.34
2023-07-19T11:34:17.801Z,24.27
2023-07-19T11:36:47.896Z,24.43
2023-07-19T11:39:22.580Z,24.55
2023-07-19T11:41:50.899Z,24.74
2023-07-19T11:44:21.775Z,25.07
2023-07-19T11:46:50.622Z,25.29
2023-07-19T11:49:19.663Z,25.61
2023-07-19T11:51:48.328Z,25.92
2023-07-19T11:54:16.574Z,26.11
2023-07-19T11:56:44.862Z,26.16
2023-07-19T11:59:12.868Z,26.25
2023-07-19T12:01:41.569Z,26.08
2023-07-19T12:04:10.260Z,25.82
2023-07-19T12:06:38.586Z,25.60
2023-07-19T12:09:06.622Z,25.26
2023-07-19T12:11:34.675Z,24.92
2023-07-19T12:14:03.545Z,24.39
2023-07-19T12:16:31.716Z,24.42
2023-07-19T12:18:59.851Z,24.37
2023-07-19T12:21:28.238Z,24.56
2023-07-19T12:23:59.566Z,24.57
2023-07-19T12:28:59.301Z,25.08
2023-07-19T12:31:27.586Z,25.40
2023-07-19T12:33:58.195Z,25.92
2023-07-19T12:36:26.405Z,26.30
2023-07-19T12:38:56.312Z,26.69
2023-07-19T12:41:24.350Z,26.78
2023-07-19T12:43:52.449Z,26.71
2023-07-19T12:46:21.218Z,26.72
2023-07-19T12:48:52.635Z,26.84
2023-07-19T12:51:21.293Z,26.71
2023-07-19T12:53:50.585Z,26.21
2023-07-19T12:56:19.690Z,25.71
2023-07-19T12:58:48.320Z,25.59
2023-07-19T13:01:16.884Z,24.94
2023-07-19T13:03:45.328Z,24.67
2023-07-19T13:06:13.505Z,24.23
2023-07-19T13:08:41.916Z,24.12
2023-07-19T13:11:10.282Z,24.54
2023-07-19T13:13:38.326Z,24.76
2023-07-19T13:16:06.381Z,24.76
2023-07-19T13:18:34.536Z,24.55
2023-07-19T13:21:02.624Z,24.75
2023-07-19T13:23:30.650Z,24.52
2023-07-19T13:25:58.767Z,24.67
2023-07-19T13:28:26.977Z,24.56
2023-07-19T13:30:59.324Z,24.53
2023-07-19T13:33:29.089Z,24.00
2023-07-19T13:36:00.045Z,24.12
2023-07-19T13:38:29.002Z,24.00
2023-07-19T13:40:57.075Z,23.78
2023-07-19T13:43:25.370Z,23.77
2023-07-19T13:45:53.628Z,23.90
2023-07-19T13:48:21.710Z,23.72
2023-07-19T13:50:49.698Z,24.15
2023-07-19T13:53:17.637Z,24.29
2023-07-19T13:55:45.637Z,24.22
2023-07-19T13:58:15.109Z,24.35
2023-07-19T14:00:43.386Z,24.22
2023-07-19T14:03:13.185Z,24.81
2023-07-19T14:05:41.386Z,25.07
2023-07-19T14:08:10.119Z,25.14
2023-07-19T14:10:38.512Z,25.53
2023-07-19T14:13:08.521Z,25.55
2023-07-19T14:15:37.451Z,25.35
2023-07-19T14:18:16.586Z,25.48
2023-07-19T14:20:46.313Z,25.15
2023-07-19T14:23:14.599Z,24.50
2023-07-19T14:25:42.807Z,24.50
2023-07-19T14:28:11.467Z,24.39
2023-07-19T14:30:40.808Z,24.26
2023-07-19T14:33:09.497Z,24.70
2023-07-19T14:35:37.695Z,24.33
2023-07-19T14:38:05.780Z,23.83
2023-07-19T14:40:38.397Z,23.58
2023-07-19T14:43:06.523Z,23.80
2023-07-19T14:45:36.142Z,23.71
2023-07-19T14:48:04.725Z,23.63
2023-07-19T14:50:32.888Z,23.42
2023-07-19T14:53:08.179Z,22.91
2023-07-19T14:55:36.415Z,23.02
2023-07-19T14:58:04.386Z,23.10
2023-07-19T15:03:03.397Z,22.93
2023-07-19T15:05:31.547Z,22.91
2023-07-19T15:07:59.551Z,22.79
2023-07-19T15:10:27.571Z,22.48
2023-07-19T15:12:57.138Z,22.43
2023-07-19T15:15:25.624Z,22.29
2023-07-19T15:17:54.549Z,21.94
2023-07-19T15:20:23.767Z,21.73
2023-07-19T15:22:55.290Z,21.58
2023-07-19T15:25:24.516Z,21.23
2023-07-19T15:27:52.862Z,20.87
2023-07-19T15:30:21.183Z,20.78
2023-07-19T15:32:49.263Z,20.69
2023-07-19T15:35:17.449Z,20.63
2023-07-19T15:37:45.754Z,20.53
2023-07-19T15:40:14.081Z,20.50
2023-07-19T15:42:42.081Z,20.46
2023-07-19T15:45:12.472Z,20.39
2023-07-19T15:47:40.810Z,20.32
2023-07-19T15:50:09.506Z,20.31
2023-07-19T15:52:37.962Z,20.33
2023-07-19T15:55:06.497Z,20.37
2023-07-19T15:57:34.559Z,20.35
2023-07-19T16:00:02.665Z,20.45
2023-07-19T16:02:33.629Z,20.35
2023-07-19T16:05:01.788Z,20.26
2023-07-19T16:07:29.927Z,20.17
2023-07-19T16:09:58.031Z,20.15
2023-07-19T16:12:26.189Z,20.19
2023-07-19T16:14:54.249Z,20.18
2023-07-19T16:17:22.287Z,20.13
2023-07-19T16:19:50.622Z,19.92
2023-07-19T16:22:18.656Z,19.67
2023-07-19T16:24:46.649Z,19.48
2023-07-19T16:27:14.692Z,19.28
2023-07-19T16:29:42.693Z,19.19
2023-07-19T16:32:10.833Z,19.19
2023-07-19T16:34:38.915Z,19.10
2023-07-19T16:37:07.458Z,19.02
2023-07-19T16:39:35.733Z,18.96
2023-07-19T16:42:05.337Z,18.95
2023-07-19T16:44:33.348Z,18.99
2023-07-19T16:47:01.480Z,19.09
2023-07-19T16:49:29.523Z,19.27
2023-07-19T16:51:59.087Z,19.45
2023-07-19T16:54:27.166Z,19.51
2023-07-19T16:56:55.212Z,19.45
2023-07-19T16:59:23.893Z,19.47
2023-07-19T17:01:52.026Z,19.41
2023-07-19T17:04:20.100Z,19.49
2023-07-19T17:06:48.371Z,19.52
2023-07-19T17:09:16.376Z,19.58
2023-07-19T17:11:44.451Z,19.63
2023-07-19T17:14:12.587Z,19.71
2023-07-19T17:16:40.530Z,19.89
2023-07-19T17:19:15.805Z,19.92
2023-07-19T17:21:46.242Z,19.87
2023-07-19T17:24:14.473Z,19.86
2023-07-19T17:26:42.676Z,19.89
2023-07-19T17:29:10.706Z,19.93
2023-07-19T17:31:38.729Z,19.97
2023-07-19T17:34:06.822Z,19.97
2023-07-19T17:36:34.919Z,20.01
2023-07-19T17:39:02.862Z,19.98
2023-07-19T17:41:30.926Z,19.89
2023-07-19T17:43:59.948Z,19.81
2023-07-19T17:46:28.057Z,19.78
2023-07-19T17:48:56.101Z,19.60
2023-07-19T17:51:24.258Z,19.56
2023-07-19T17:53:52.427Z,19.52
2023-07-19T17:56:20.499Z,19.47
2023-07-19T17:58:51.395Z,19.44
2023-07-19T18:01:20.941Z,19.38
2023-07-19T18:03:49.819Z,19.38
2023-07-19T18:06:19.362Z,19.37
2023-07-19T18:08:47.396Z,19.31
2023-07-19T18:11:15.552Z,19.18
2023-07-19T18:13:43.657Z,19.08
2023-07-19T18:16:11.652Z,18.98
2023-07-19T18:18:39.729Z,18.97
2023-07-19T18:21:07.717Z,18.87
2023-07-19T18:23:38.532Z,18.75
2023-07-19T18:26:06.698Z,18.71
2023-07-19T18:28:36.432Z,18.69
2023-07-19T18:31:04.809Z,18.66
2023-07-19T18:33:33.361Z,18.62
2023-07-19T18:36:01.380Z,18.51
2023-07-19T18:38:29.553Z,18.43
2023-07-19T18:40:57.929Z,18.33
2023-07-19T18:43:26.066Z,18.21
2023-07-19T18:45:55.764Z,18.09
2023-07-19T18:48:24.228Z,18.00
2023-07-19T18:50:52.252Z,17.93
2023-07-19T18:53:26.202Z,17.87
2023-07-19T18:55:54.273Z,17.80
2023-07-19T18:58:22.334Z,17.75
2023-07-19T19:00:50.428Z,17.69
2023-07-19T19:03:18.579Z,17.63
2023-07-19T19:05:47.717Z,17.58
2023-07-19T19:08:17.175Z,17.50
2023-07-19T19:10:45.597Z,17.41
2023-07-19T19:13:13.635Z,17.34
2023-07-19T19:15:41.977Z,17.29
2023-07-19T19:18:10.523Z,17.24
2023-07-19T19:20:38.638Z,17.19
2023-07-19T19:23:08.785Z,17.14
2023-07-19T19:25:36.866Z,17.09
2023-07-19T19:30:50.484Z,17.00
2023-07-19T19:33:18.817Z,16.97
2023-07-19T19:35:46.873Z,16.93
2023-07-19T19:38:15.322Z,16.93
2023-07-19T19:40:43.594Z,16.92
2023-07-19T19:43:11.570Z,16.89
2023-07-19T19:45:39.567Z,16.87
2023-07-19T19:48:07.769Z,16.85
2023-07-19T19:50:35.787Z,16.84
2023-07-19T19:53:10.473Z,16.83
2023-07-19T19:58:12.226Z,16.80
2023-07-19T20:00:41.766Z,16.76
2023-07-19T20:08:12.782Z,16.71
2023-07-19T20:10:59.185Z,16.71
2023-07-19T20:13:28.075Z,16.71
2023-07-19T20:16:00.878Z,16.70
2023-07-19T20:21:01.121Z,16.72
2023-07-19T20:23:29.511Z,16.70
2023-07-19T20:26:11.886Z,16.70
2023-07-19T20:28:41.574Z,16.70
2023-07-19T20:31:09.547Z,16.71
2023-07-19T20:33:41.833Z,16.71
2023-07-19T20:36:45.643Z,16.70
2023-07-19T20:38:59.702Z,16.70
2023-07-19T20:43:58.975Z,16.69
2023-07-19T20:46:26.956Z,16.66
2023-07-19T20:49:04.379Z,16.65
2023-07-19T20:51:34.334Z,16.63
2023-07-19T20:54:06.553Z,16.62
2023-07-19T20:56:37.173Z,16.60
2023-07-19T20:59:08.569Z,16.57
2023-07-19T21:01:40.054Z,16.54
2023-07-19T21:04:08.704Z,16.52
2023-07-19T21:06:39.869Z,16.48
2023-07-19T21:09:07.932Z,16.44
2023-07-19T21:11:36.536Z,16.42
2023-07-19T21:14:04.744Z,16.41
2023-07-19T21:16:33.398Z,16.39
2023-07-19T21:19:01.517Z,16.34
2023-07-19T21:21:29.746Z,16.29
2023-07-19T21:23:57.777Z,16.27
2023-07-19T21:26:26.155Z,16.26
2023-07-19T21:28:54.160Z,16.24
2023-07-19T21:31:27.399Z,16.20
2023-07-19T21:33:58.119Z,16.18
2023-07-19T21:36:26.323Z,16.16
2023-07-19T21:38:54.264Z,16.15
2023-07-19T21:41:22.446Z,16.14
2023-07-19T21:43:50.758Z,16.13
2023-07-19T21:46:18.979Z,16.12
2023-07-19T21:48:47.151Z,16.10
2023-07-19T21:51:15.290Z,16.05
2023-07-19T21:53:43.208Z,16.02
2023-07-19T21:56:11.110Z,15.97
2023-07-19T21:58:39.151Z,15.92
2023-07-19T22:01:07.200Z,15.88
2023-07-19T22:03:35.260Z,15.83
2023-07-19T22:06:03.822Z,15.78
2023-07-19T22:08:31.935Z,15.71
2023-07-19T22:10:59.996Z,15.62
2023-07-19T22:13:28.122Z,15.56
2023-07-19T22:15:56.031Z,15.49
2023-07-19T22:18:27.584Z,15.40
2023-07-19T22:21:07.210Z,15.31
2023-07-19T22:23:44.034Z,15.18
2023-07-19T22:26:12.032Z,15.08
2023-07-19T22:28:40.137Z,15.00
2023-07-19T22:31:08.173Z,14.93
2023-07-19T22:33:36.214Z,14.88
2023-07-19T22:36:04.740Z,14.81
2023-07-19T22:38:33.157Z,14.75
2023-07-19T22:41:01.132Z,14.67
2023-07-19T22:43:29.822Z,14.62
2023-07-19T22:45:57.853Z,14.52
2023-07-19T22:48:25.904Z,14.43
2023-07-19T22:50:54.009Z,14.34
2023-07-19T22:53:22.362Z,14.28
2023-07-19T22:55:50.493Z,14.22
2023-07-19T22:58:18.457Z,14.15
2023-07-19T23:00:48.183Z,14.08
2023-07-19T23:03:16.257Z,14.02
2023-07-19T23:05:44.212Z,13.98
2023-07-19T23:08:12.159Z,13.94
2023-07-19T23:10:40.144Z,13.89
2023-07-19T23:13:08.220Z,13.83
2023-07-19T23:15:36.198Z,13.78
2023-07-19T23:18:04.213Z,13.73
2023-07-19T23:20:32.308Z,13.67
2023-07-19T23:23:01.329Z,13.61
2023-07-19T23:25:29.426Z,13.56
2023-07-19T23:28:01.173Z,13.52
2023-07-19T23:30:29.520Z,13.50
2023-07-19T23:32:58.974Z,13.49
2023-07-19T23:35:27.110Z,13.47
2023-07-19T23:37:56.013Z,13.44
2023-07-19T23:40:24.415Z,13.41
2023-07-19T23:42:52.834Z,13.37
2023-07-19T23:45:20.923Z,13.30
2023-07-19T23:47:49.962Z,13.26
2023-07-19T23:50:18.308Z,13.24
2023-07-19T23:52:46.324Z,13.23
2023-07-19T23:55:14.485Z,13.24
2023-07-19T23:57:42.377Z,13.26
